Time;durP1;ratioP1;P1;durP2;ratioP2;P2;SDS_P1;SDS_P2;PMS_P1;PMS_P2;Temp;Humidity;BMP_temperature;BMP_pressure;BME280_temperature;BME280_humidity;BME280_pressure;Samples;Min_cycle;Max_cycle;Signal;HPM_P1;HPM_P2
2022/07/10 00:00:31;;;;;;;3.43;1.90;;;;;;;18.08;88.61;96824.84;5038533;28;20215;-78
2022/07/10 00:02:59;;;;;;;1.83;1.70;;;;;;;18.08;88.61;96827.56;5038405;28;20194;-78
2022/07/10 00:05:26;;;;;;;1.87;1.70;;;;;;;18.07;88.53;96825.09;5031803;28;20202;-79
2022/07/10 00:07:53;;;;;;;4.90;2.00;;;;;;;17.96;87.50;96823.41;5037565;28;20443;-78
2022/07/10 00:10:22;;;;;;;2.43;2.20;;;;;;;17.80;88.35;96822.50;5032772;28;20207;-78
2022/07/10 00:12:49;;;;;;;2.67;1.90;;;;;;;17.84;89.56;96820.91;5032820;28;20195;-78
2022/07/10 00:15:18;;;;;;;2.20;1.90;;;;;;;17.92;89.92;96823.13;5028125;28;20217;-78
2022/07/10 00:17:46;;;;;;;3.60;2.10;;;;;;;17.96;87.77;96815.19;5033524;28;20317;-78
2022/07/10 00:20:15;;;;;;;4.50;1.90;;;;;;;17.97;87.29;96820.41;5044611;28;20207;-78
2022/07/10 00:22:43;;;;;;;2.20;2.00;;;;;;;17.95;86.39;96816.31;5055609;28;20211;-78
2022/07/10 00:25:12;;;;;;;3.60;2.00;;;;;;;17.91;86.91;96816.00;5026012;28;20202;-78
2022/07/10 00:27:40;;;;;;;3.13;1.80;;;;;;;17.74;88.25;96809.91;5029735;28;20239;-79
2022/07/10 00:30:09;;;;;;;1.90;1.80;;;;;;;17.74;88.80;96813.47;5030713;28;20209;-79
2022/07/10 00:32:36;;;;;;;3.67;2.30;;;;;;;17.61;88.37;96800.22;5033198;28;20199;-78
2022/07/10 00:35:06;;;;;;;2.20;2.00;;;;;;;17.52;89.07;96806.47;5033363;28;20234;-78
2022/07/10 00:37:33;;;;;;;2.53;2.00;;;;;;;17.40;90.53;96799.28;5033510;28;20245;-78
2022/07/10 00:40:00;;;;;;;2.33;1.80;;;;;;;17.40;91.37;96801.19;5038579;28;20213;-78
2022/07/10 00:42:28;;;;;;;4.80;2.00;;;;;;;17.33;92.14;96798.69;5037168;28;20226;-78
2022/07/10 00:44:55;;;;;;;2.73;2.00;;;;;;;17.29;92.33;96796.72;5029042;28;20315;-79
2022/07/10 00:47:22;;;;;;;2.80;1.90;;;;;;;17.36;91.26;96800.06;5035680;28;20207;-78
2022/07/10 00:49:49;;;;;;;3.43;2.20;;;;;;;17.40;90.59;96791.09;5030324;28;20199;-78
2022/07/10 00:52:19;;;;;;;4.10;2.10;;;;;;;17.56;90.77;96804.84;5037052;28;20269;-78
2022/07/10 00:54:50;;;;;;;2.97;2.10;;;;;;;17.61;91.18;96799.41;5035649;28;20214;-78
2022/07/10 00:57:18;;;;;;;4.10;2.07;;;;;;;17.63;90.89;96803.56;5030075;28;20233;-78
2022/07/10 00:59:47;;;;;;;2.47;1.93;;;;;;;17.47;92.13;96788.13;5035224;28;20588;-78
2022/07/10 01:02:15;;;;;;;5.03;2.27;;;;;;;17.38;92.88;96784.25;5030083;28;20333;-78
2022/07/10 01:04:42;;;;;;;3.07;2.20;;;;;;;17.39;93.48;96780.44;5035693;28;20202;-78
2022/07/10 01:07:10;;;;;;;4.03;2.00;;;;;;;17.33;92.54;96770.56;5032203;28;20207;-78
2022/07/10 01:09:38;;;;;;;2.37;2.17;;;;;;;17.26;91.91;96770.81;5030868;28;20198;-78
2022/07/10 01:12:07;;;;;;;4.37;2.43;;;;;;;17.33;92.26;96779.59;5034069;28;20310;-78
2022/07/10 01:14:35;;;;;;;3.03;2.20;;;;;;;17.28;92.70;96782.25;5036683;28;20205;-78
2022/07/10 01:17:02;;;;;;;2.23;2.03;;;;;;;17.25;92.59;96780.06;5037302;28;20225;-78
2022/07/10 01:19:29;;;;;;;2.20;1.97;;;;;;;17.27;93.55;96782.53;5032668;28;20279;-78
2022/07/10 01:21:58;;;;;;;3.07;2.30;;;;;;;17.34;94.06;96781.22;5034950;28;20202;-78
2022/07/10 01:24:25;;;;;;;3.80;2.03;;;;;;;17.42;94.76;96776.38;5031541;28;20233;-78
2022/07/10 01:26:53;;;;;;;5.60;2.20;;;;;;;17.51;94.17;96780.25;5030386;28;20237;-78
2022/07/10 01:29:22;;;;;;;2.20;2.00;;;;;;;17.58;94.21;96778.94;5034333;28;20210;-79
2022/07/10 01:31:50;;;;;;;3.17;1.90;;;;;;;17.65;93.87;96781.44;5035540;28;20211;-78
2022/07/10 01:34:17;;;;;;;2.90;2.00;;;;;;;17.68;93.30;96780.94;5034626;28;20195;-78
2022/07/10 01:36:45;;;;;;;3.73;2.07;;;;;;;17.73;93.00;96780.94;5028250;28;20293;-78
2022/07/10 01:39:13;;;;;;;4.17;2.23;;;;;;;17.61;93.01;96778.38;5030448;28;20212;-78
2022/07/10 01:41:40;;;;;;;3.47;1.83;;;;;;;17.46;94.15;96775.56;5040327;28;20202;-78
2022/07/10 01:44:07;;;;;;;2.27;1.83;;;;;;;17.48;93.93;96775.31;5034519;28;20204;-78
2022/07/10 01:46:35;;;;;;;2.77;2.20;;;;;;;17.56;93.40;96788.47;5034119;28;20218;-78
2022/07/10 01:49:02;;;;;;;2.00;1.90;;;;;;;17.56;92.54;96772.91;5033119;28;20194;-78
2022/07/10 01:51:29;;;;;;;3.57;1.90;;;;;;;17.51;92.14;96777.50;5025640;28;20210;-78
2022/07/10 01:53:56;;;;;;;2.93;2.00;;;;;;;17.42;92.81;96773.63;5032892;28;20194;-78
2022/07/10 01:56:24;;;;;;;3.90;1.90;;;;;;;17.33;92.92;96771.41;5032938;28;20320;-78
2022/07/10 01:58:51;;;;;;;3.30;1.97;;;;;;;17.37;93.04;96774.41;5034890;28;20218;-78
2022/07/10 02:01:19;;;;;;;2.07;1.80;;;;;;;17.39;92.08;96764.06;5029256;28;20190;-78
2022/07/10 02:06:31;;;;;;;3.23;1.90;;;;;;;17.42;93.80;96776.38;5035873;28;20356;-78
2022/07/10 02:08:58;;;;;;;4.57;1.97;;;;;;;17.45;92.84;96781.28;5036034;28;20195;-78
2022/07/10 02:11:26;;;;;;;3.83;2.30;;;;;;;17.35;92.55;96771.94;5034756;28;20238;-78
2022/07/10 02:13:53;;;;;;;2.67;2.10;;;;;;;17.34;92.25;96770.31;5032876;28;20280;-78
2022/07/10 02:16:20;;;;;;;3.17;2.00;;;;;;;17.33;92.49;96774.13;5035401;28;20191;-78
2022/07/10 02:18:47;;;;;;;3.13;2.27;;;;;;;17.32;93.18;96766.19;5030516;28;20313;-78
2022/07/10 02:21:14;;;;;;;2.60;2.10;;;;;;;17.23;91.65;96765.88;5043057;28;20198;-78
2022/07/10 02:23:42;;;;;;;3.07;2.00;;;;;;;17.22;92.65;96775.13;5030752;28;20203;-78
2022/07/10 02:26:09;;;;;;;2.50;2.30;;;;;;;17.16;92.88;96769.91;5028183;28;20226;-78
2022/07/10 02:28:37;;;;;;;3.33;2.03;;;;;;;17.19;93.96;96780.28;5035533;28;20269;-78
2022/07/10 02:31:05;;;;;;;5.23;2.00;;;;;;;17.19;95.96;96772.09;5038425;28;20230;-78
2022/07/10 02:33:32;;;;;;;2.00;1.90;;;;;;;17.19;96.30;96770.19;5032604;28;20219;-78
2022/07/10 02:35:59;;;;;;;2.70;2.10;;;;;;;17.21;96.30;96773.47;5042832;28;20221;-78
2022/07/10 02:38:26;;;;;;;3.83;2.27;;;;;;;17.12;95.61;96766.03;5031824;28;20237;-79
2022/07/10 02:40:53;;;;;;;3.30;1.93;;;;;;;17.03;95.94;96765.69;5036538;28;20234;-78
2022/07/10 02:43:20;;;;;;;4.27;2.17;;;;;;;16.93;96.48;96754.69;5041372;28;20207;-79
2022/07/10 02:45:49;;;;;;;4.20;1.80;;;;;;;16.87;97.39;96758.47;5040902;28;20210;-78
2022/07/10 02:48:17;;;;;;;2.83;1.93;;;;;;;16.92;97.73;96764.81;5031921;28;20207;-78
2022/07/10 02:50:45;;;;;;;3.40;2.30;;;;;;;16.97;97.84;96766.75;5042907;28;20202;-78
2022/07/10 02:53:12;;;;;;;3.73;2.00;;;;;;;16.95;97.61;96769.72;5035077;28;20257;-78
2022/07/10 02:55:39;;;;;;;3.37;2.10;;;;;;;16.93;97.28;96760.97;5034762;28;20318;-78
2022/07/10 02:58:06;;;;;;;3.77;1.90;;;;;;;16.92;96.31;96764.00;5030890;28;20237;-78
2022/07/10 03:00:33;;;;;;;4.60;2.30;;;;;;;16.84;97.82;96762.53;5031516;28;20229;-78
2022/07/10 03:03:02;;;;;;;2.83;2.00;;;;;;;16.85;96.99;96764.19;5043259;28;20296;-79
2022/07/10 03:05:29;;;;;;;2.80;2.00;;;;;;;16.90;96.87;96756.06;5033300;28;20215;-78
2022/07/10 03:07:56;;;;;;;2.87;2.00;;;;;;;16.98;96.17;96757.50;5039211;28;20218;-78
2022/07/10 03:10:23;;;;;;;3.40;2.10;;;;;;;16.98;94.95;96752.84;5042498;28;20264;-78
2022/07/10 03:12:50;;;;;;;4.93;2.30;;;;;;;16.90;95.89;96755.25;5030929;28;20207;-78
2022/07/10 03:15:17;;;;;;;2.97;1.90;;;;;;;16.82;96.13;96742.91;5039381;28;20210;-78
2022/07/10 03:17:44;;;;;;;2.13;1.90;;;;;;;16.68;96.83;96740.84;5037338;28;20224;-78
2022/07/10 03:20:13;;;;;;;2.30;2.10;;;;;;;16.58;97.93;96742.41;5034199;28;20203;-78
2022/07/10 03:22:40;;;;;;;3.30;2.20;;;;;;;16.64;99.13;96743.28;5040873;28;20225;-78
2022/07/10 03:25:08;;;;;;;2.60;2.10;;;;;;;16.68;98.55;96746.31;5035911;28;20199;-78
2022/07/10 03:27:35;;;;;;;3.03;2.20;;;;;;;16.68;97.91;96751.75;5034918;28;20283;-78
2022/07/10 03:30:02;;;;;;;3.50;2.20;;;;;;;16.64;97.96;96741.38;5039224;28;20359;-78
2022/07/10 03:32:29;;;;;;;3.10;1.97;;;;;;;16.57;99.08;96750.84;5037870;28;20209;-78
2022/07/10 03:34:56;;;;;;;5.23;2.40;;;;;;;16.58;99.08;96736.94;5034624;28;20207;-78
2022/07/10 03:37:25;;;;;;;2.43;2.13;;;;;;;16.49;98.96;96737.66;5032963;28;20218;-78
2022/07/10 03:39:52;;;;;;;4.17;2.20;;;;;;;16.52;99.30;96743.41;5029756;28;20206;-78
2022/07/10 03:42:19;;;;;;;4.10;2.30;;;;;;;16.50;99.49;96742.03;5029662;28;20293;-78
2022/07/10 03:44:46;;;;;;;3.20;2.03;;;;;;;16.46;99.76;96738.19;5032309;28;20202;-78
2022/07/10 03:47:13;;;;;;;2.20;2.00;;;;;;;16.44;99.99;96740.31;5038707;28;20206;-78
2022/07/10 03:49:41;;;;;;;3.23;2.00;;;;;;;16.43;99.95;96744.94;5030726;28;20222;-78
2022/07/10 03:52:08;;;;;;;2.30;2.10;;;;;;;16.46;99.54;96749.91;5037342;28;20226;-78
2022/07/10 03:54:37;;;;;;;2.77;1.90;;;;;;;16.56;98.23;96744.56;5034435;28;20217;-78
2022/07/10 03:59:49;;;;;;;2.87;2.30;;;;;;;16.54;96.45;96735.81;5029964;28;20215;-78
2022/07/10 04:02:16;;;;;;;2.57;2.07;;;;;;;16.39;98.56;96743.84;5036885;28;20194;-78
2022/07/10 04:04:43;;;;;;;3.97;2.50;;;;;;;16.50;99.06;96742.03;5033928;28;20210;-78
2022/07/10 04:07:12;;;;;;;2.83;2.20;;;;;;;16.41;99.96;96741.69;5033723;28;20209;-78
2022/07/10 04:09:40;;;;;;;5.87;2.53;;;;;;;16.37;100.00;96740.53;5042559;28;20206;-78
2022/07/10 04:12:08;;;;;;;4.07;2.10;;;;;;;16.37;100.00;96746.00;5033721;28;20211;-78
2022/07/10 04:14:35;;;;;;;3.17;2.30;;;;;;;16.36;100.00;96743.53;5037950;28;20230;-78
2022/07/10 04:17:02;;;;;;;3.57;2.30;;;;;;;16.35;100.00;96736.41;5027414;28;20210;-78
2022/07/10 04:19:29;;;;;;;2.37;2.10;;;;;;;16.43;99.81;96744.94;5027896;28;20238;-78
2022/07/10 04:21:56;;;;;;;2.40;2.00;;;;;;;16.45;98.87;96740.06;5027972;28;20210;-78
2022/07/10 04:24:23;;;;;;;2.00;1.80;;;;;;;16.47;98.85;96737.09;5033633;28;20198;-78
2022/07/10 04:26:51;;;;;;;3.73;2.20;;;;;;;16.55;98.30;96729.28;5035451;28;20252;-78
2022/07/10 04:29:18;;;;;;;3.90;2.17;;;;;;;16.66;97.81;96726.69;5031539;28;20205;-78
2022/07/10 04:31:46;;;;;;;2.30;2.10;;;;;;;16.69;96.75;96731.59;5032757;28;20211;-78
2022/07/10 04:34:13;;;;;;;3.20;2.40;;;;;;;16.55;98.21;96737.47;5043027;28;20213;-78
2022/07/10 04:36:40;;;;;;;4.53;2.57;;;;;;;16.35;99.37;96731.78;5033547;28;20202;-78
2022/07/10 04:39:07;;;;;;;2.93;2.17;;;;;;;16.27;100.00;96721.34;5038705;28;20338;-78
2022/07/10 04:41:34;;;;;;;3.00;2.30;;;;;;;16.29;100.00;96735.56;5036276;28;20206;-78
2022/07/10 04:44:04;;;;;;;3.17;2.20;;;;;;;16.41;100.00;96741.69;5034090;28;20211;-78
2022/07/10 04:46:31;;;;;;;2.53;2.20;;;;;;;16.51;100.00;96732.75;5036134;28;20198;-78
2022/07/10 04:48:58;;;;;;;3.37;2.00;;;;;;;16.56;100.00;96739.09;5028451;28;20221;-78
2022/07/10 04:51:25;;;;;;;4.43;2.10;;;;;;;16.61;99.80;96744.63;5034795;28;20206;-78
2022/07/10 04:53:52;;;;;;;2.90;2.20;;;;;;;16.70;98.09;96738.69;5032773;28;20202;-78
2022/07/10 04:56:19;;;;;;;2.93;2.17;;;;;;;16.76;97.25;96743.94;5036564;28;20226;-78
2022/07/10 04:58:46;;;;;;;2.20;2.00;;;;;;;16.79;97.37;96737.97;5032537;28;20234;-78
2022/07/10 05:01:15;;;;;;;5.40;2.20;;;;;;;16.82;97.62;96739.34;5030950;28;20209;-78
2022/07/10 05:03:42;;;;;;;2.80;2.20;;;;;;;16.84;98.17;96737.19;5034522;28;20214;-78
2022/07/10 05:06:09;;;;;;;3.23;2.27;;;;;;;16.89;99.00;96732.59;5040589;28;20238;-78
2022/07/10 05:08:36;;;;;;;2.50;2.13;;;;;;;16.97;98.59;96739.47;5026394;28;20301;-78
2022/07/10 05:11:03;;;;;;;2.40;2.17;;;;;;;17.02;99.11;96739.50;5037610;28;20207;-78
2022/07/10 05:13:30;;;;;;;3.47;2.60;;;;;;;17.00;100.00;96747.16;5029430;28;20198;-78
2022/07/10 05:15:57;;;;;;;3.70;2.20;;;;;;;16.99;100.00;96745.50;5032089;28;20195;-78
2022/07/10 05:18:26;;;;;;;2.60;2.40;;;;;;;17.00;100.00;96750.69;5046312;28;20229;-78
2022/07/10 05:20:53;;;;;;;2.40;2.20;;;;;;;17.03;100.00;96750.16;5036107;28;20297;-78
2022/07/10 05:23:20;;;;;;;2.63;2.00;;;;;;;17.10;100.00;96747.19;5030777;28;20312;-78
2022/07/10 05:25:47;;;;;;;3.40;2.07;;;;;;;17.09;100.00;96748.31;5036791;28;20213;-78
2022/07/10 05:28:15;;;;;;;2.77;2.13;;;;;;;17.04;100.00;96753.72;5038935;28;20257;-78
2022/07/10 05:30:42;;;;;;;4.60;2.50;;;;;;;17.03;100.00;96757.50;5031758;28;20318;-78
2022/07/10 05:33:09;;;;;;;4.07;2.23;;;;;;;17.03;100.00;96754.78;5030900;28;20205;-78
2022/07/10 05:35:38;;;;;;;2.90;2.30;;;;;;;17.09;100.00;96761.94;5033278;28;20206;-78
2022/07/10 05:38:05;;;;;;;5.70;2.40;;;;;;;17.01;100.00;96765.94;5034836;28;20269;-78
2022/07/10 05:40:32;;;;;;;3.67;2.50;;;;;;;16.95;100.00;96752.53;5033795;28;20263;-78
2022/07/10 05:42:59;;;;;;;4.00;2.20;;;;;;;16.91;100.00;96767.81;5026020;28;20269;-79
2022/07/10 05:45:27;;;;;;;3.47;2.43;;;;;;;16.92;100.00;96764.81;5028062;28;20302;-79
2022/07/10 05:47:54;;;;;;;2.40;2.20;;;;;;;16.92;100.00;96759.38;5034328;28;20237;-79
2022/07/10 05:50:21;;;;;;;3.97;2.00;;;;;;;16.92;100.00;96761.25;5031501;28;20202;-79
2022/07/10 05:52:49;;;;;;;4.63;2.57;;;;;;;16.90;100.00;96755.25;5036720;28;20203;-79
2022/07/10 05:55:16;;;;;;;4.97;2.30;;;;;;;16.78;100.00;96768.22;5033777;28;20206;-79
2022/07/10 05:57:44;;;;;;;2.37;2.00;;;;;;;16.67;100.00;96756.41;5037872;28;20209;-79
2022/07/10 06:00:12;;;;;;;3.50;2.30;;;;;;;16.71;100.00;96759.44;5036866;28;20225;-79
2022/07/10 06:02:39;;;;;;;2.53;2.13;;;;;;;16.78;100.00;96757.31;5034600;28;20230;-79
2022/07/10 06:05:07;;;;;;;2.63;2.20;;;;;;;16.75;100.00;96758.66;5032316;28;20207;-79
2022/07/10 06:07:35;;;;;;;2.90;2.10;;;;;;;16.81;100.00;96756.81;5036288;28;20255;-79
2022/07/10 06:10:03;;;;;;;2.77;2.07;;;;;;;16.90;100.00;96763.41;5028594;28;20229;-79
2022/07/10 06:12:31;;;;;;;2.20;2.00;;;;;;;17.01;100.00;96752.31;5034447;28;20214;-79
2022/07/10 06:14:58;;;;;;;4.93;2.43;;;;;;;17.16;100.00;96756.25;5037030;28;20213;-79
2022/07/10 06:17:25;;;;;;;2.60;2.30;;;;;;;17.23;100.00;96754.13;5034804;28;20269;-79
2022/07/10 06:19:52;;;;;;;3.57;2.43;;;;;;;17.23;100.00;96746.75;5041391;28;20226;-79
2022/07/10 06:22:31;;;;;;;2.83;2.30;;;;;;;17.36;100.00;96759.94;5033881;28;20220;-79
2022/07/10 06:24:59;;;;;;;3.30;2.30;;;;;;;17.42;100.00;96752.63;5034463;28;20240;-79
2022/07/10 06:27:29;;;;;;;3.90;2.60;;;;;;;17.44;100.00;96749.63;5036164;28;20245;-79
2022/07/10 06:29:57;;;;;;;2.63;2.00;;;;;;;17.47;100.00;96754.53;5038086;28;20221;-79
2022/07/10 06:32:24;;;;;;;2.67;2.40;;;;;;;17.52;100.00;96755.41;5032481;28;20270;-79
2022/07/10 06:34:52;;;;;;;2.90;2.60;;;;;;;17.52;100.00;96741.75;5035544;28;20311;-79
2022/07/10 06:37:20;;;;;;;3.60;2.40;;;;;;;17.55;100.00;96748.59;5041230;28;20210;-79
2022/07/10 06:39:48;;;;;;;2.43;2.23;;;;;;;17.41;100.00;96748.25;5031610;28;20255;-79
2022/07/10 06:42:15;;;;;;;4.07;2.23;;;;;;;17.35;100.00;96744.63;5028277;28;20214;-79
2022/07/10 06:44:44;;;;;;;3.83;2.17;;;;;;;17.29;100.00;96745.69;5042092;28;20240;-79
2022/07/10 06:49:57;;;;;;;3.43;2.70;;;;;;;17.05;100.00;96747.16;5031839;28;20209;-79
2022/07/10 06:52:24;;;;;;;5.03;2.70;;;;;;;17.04;100.00;96745.53;5030884;28;20210;-79
2022/07/10 06:54:53;;;;;;;3.70;2.50;;;;;;;17.17;100.00;96753.28;5034702;28;20241;-80
2022/07/10 06:57:20;;;;;;;5.83;2.50;;;;;;;17.26;100.00;96743.53;5038745;28;20230;-79
2022/07/10 06:59:49;;;;;;;2.40;2.20;;;;;;;17.36;100.00;96742.72;5037890;28;20253;-79
2022/07/10 07:02:16;;;;;;;2.60;2.40;;;;;;;17.48;100.00;96745.28;5036790;28;20201;-79
2022/07/10 07:04:44;;;;;;;2.80;2.47;;;;;;;17.51;100.00;96744.75;5030853;28;20205;-79
2022/07/10 07:07:11;;;;;;;2.40;2.20;;;;;;;17.62;100.00;96743.72;5041690;28;20302;-79
2022/07/10 07:09:38;;;;;;;2.57;2.20;;;;;;;17.64;100.00;96739.66;5029911;28;20194;-79
2022/07/10 07:12:06;;;;;;;5.60;2.80;;;;;;;17.69;100.00;96742.41;5032190;28;20214;-79
2022/07/10 07:14:33;;;;;;;4.33;2.23;;;;;;;17.75;100.00;96741.38;5030427;28;20210;-79
2022/07/10 07:17:05;;;;;;;3.50;2.40;;;;;;;17.81;100.00;96733.19;5046858;28;20210;-79
2022/07/10 07:23:09;;;;;;;3.63;2.57;;;;;;;17.89;100.00;96733.50;5034972;28;20233;-79
2022/07/10 07:25:05;;;;;;;3.50;2.30;;;;;;;18.79;100.00;96717.59;5049972;28;20242;-79
2022/07/10 07:27:33;;;;;;;3.92;2.40;;;;;;;19.15;98.01;96718.38;5024019;28;20242;-78
2022/07/10 07:30:04;;;;;;;3.13;2.10;;;;;;;19.62;94.78;96716.13;5037922;28;20333;-79
2022/07/10 07:32:33;;;;;;;2.40;2.20;;;;;;;20.01;91.19;96718.16;5035503;28;20218;-78
2022/07/10 07:35:00;;;;;;;4.77;2.30;;;;;;;20.45;85.04;96714.66;5031688;28;20210;-78
2022/07/10 07:37:38;;;;;;;3.65;2.30;;;;;;;20.78;78.17;96713.88;5039618;28;20241;-78
2022/07/10 07:40:08;;;;;;;4.78;2.28;;;;;;;20.96;79.82;96713.19;5042518;28;20250;-78
2022/07/10 07:42:35;;;;;;;3.65;2.30;;;;;;;20.86;78.08;96712.44;5069942;28;20198;-79
2022/07/10 07:45:03;;;;;;;2.65;2.20;;;;;;;20.83;79.15;96710.28;5034603;28;20265;-79
2022/07/10 07:47:32;;;;;;;3.70;2.38;;;;;;;20.80;80.91;96708.09;5045639;28;20202;-78
2022/07/10 07:50:03;;;;;;;2.35;2.15;;;;;;;21.21;77.58;96714.09;5031067;28;20203;-79
2022/07/10 07:52:31;;;;;;;3.35;2.50;;;;;;;21.49;77.14;96716.00;5042817;28;20218;-78
2022/07/10 07:55:00;;;;;;;3.40;2.58;;;;;;;21.89;76.46;96710.06;5044909;28;20248;-78
2022/07/10 07:57:27;;;;;;;2.55;2.35;;;;;;;21.83;76.93;96708.47;5036327;28;20230;-79
2022/07/10 07:59:54;;;;;;;4.47;2.80;;;;;;;21.83;78.30;96705.72;5036729;28;20225;-78
2022/07/10 08:02:22;;;;;;;2.97;2.60;;;;;;;22.07;78.06;96702.16;5039307;28;20234;-78
2022/07/10 08:04:50;;;;;;;2.97;2.60;;;;;;;22.31;78.15;96691.09;5025898;28;20206;-79
2022/07/10 08:07:17;;;;;;;3.63;2.72;;;;;;;22.41;77.69;96699.22;5035866;28;20283;-79
2022/07/10 08:09:45;;;;;;;4.25;3.03;;;;;;;22.63;78.66;96689.25;5041771;28;20220;-79
2022/07/10 08:12:12;;;;;;;3.70;3.33;;;;;;;22.77;77.10;96691.28;5044515;28;20202;-79
2022/07/10 08:14:39;;;;;;;2.95;2.58;;;;;;;22.81;76.51;96687.63;5042825;28;20214;-79
2022/07/10 08:17:06;;;;;;;3.08;2.78;;;;;;;22.94;75.26;96692.38;5038787;28;20381;-79
2022/07/10 08:19:33;;;;;;;3.22;2.80;;;;;;;23.05;72.65;96682.00;5040990;28;20242;-79
2022/07/10 08:22:02;;;;;;;3.47;2.75;;;;;;;23.01;70.57;96687.28;5063683;28;20216;-79
2022/07/10 08:24:29;;;;;;;4.00;2.95;;;;;;;23.11;72.85;96682.72;5031109;28;20304;-78
2022/07/10 08:26:56;;;;;;;3.20;2.80;;;;;;;23.08;74.57;96678.63;5032623;28;20243;-79
2022/07/10 08:29:23;;;;;;;3.30;3.00;;;;;;;23.25;72.98;96681.63;5038667;28;20202;-79
2022/07/10 08:31:50;;;;;;;5.95;3.35;;;;;;;23.09;71.52;96677.53;5035546;28;20210;-79
2022/07/10 08:34:19;;;;;;;2.90;2.60;;;;;;;23.22;69.26;96676.72;5035298;28;20210;-79
2022/07/10 08:36:46;;;;;;;3.13;2.70;;;;;;;23.18;71.08;96672.13;5040178;28;20263;-79
2022/07/10 08:39:16;;;;;;;10.73;2.80;;;;;;;23.16;69.81;96666.91;5035755;28;20230;-79
2022/07/10 08:41:45;;;;;;;6.55;3.03;;;;;;;23.24;70.09;96663.47;5044789;28;20261;-79
2022/07/10 08:44:12;;;;;;;3.50;3.00;;;;;;;23.19;69.51;96669.06;5039522;28;20302;-79
2022/07/10 08:46:39;;;;;;;3.10;2.80;;;;;;;23.28;69.52;96660.94;5032561;28;20203;-79
2022/07/10 08:49:11;;;;;;;5.32;3.83;;;;;;;23.50;68.15;96661.06;5043477;28;20205;-79
2022/07/10 08:51:41;;;;;;;3.40;3.10;;;;;;;23.58;68.42;96662.31;5067181;28;20206;-79
2022/07/10 08:54:09;;;;;;;5.57;3.60;;;;;;;23.64;67.97;96664.69;5036619;28;20203;-79
2022/07/10 08:56:38;;;;;;;4.22;3.15;;;;;;;23.53;67.90;96662.41;5031181;28;20258;-79
2022/07/10 08:59:06;;;;;;;4.07;2.80;;;;;;;23.46;68.58;96653.72;5030277;28;20286;-79
2022/07/10 09:01:34;;;;;;;3.88;3.00;;;;;;;23.63;68.46;96659.47;5034331;28;20270;-80
2022/07/10 09:04:01;;;;;;;9.57;3.00;;;;;;;23.58;67.64;96645.75;5038174;28;20259;-79
2022/07/10 09:06:29;;;;;;;3.95;3.17;;;;;;;23.71;66.78;96650.47;5037710;28;20207;-79
2022/07/10 09:09:01;;;;;;;3.55;2.88;;;;;;;23.82;68.63;96654.63;5040041;28;20206;-79
2022/07/10 09:11:30;;;;;;;4.50;3.08;;;;;;;23.65;68.49;96655.25;5067365;28;20345;-79
2022/07/10 09:14:02;;;;;;;3.63;2.97;;;;;;;23.52;68.32;96647.81;5043373;28;20195;-80
2022/07/10 09:16:32;;;;;;;3.45;2.97;;;;;;;23.54;69.33;96651.09;5040992;28;20306;-79
2022/07/10 09:19:16;;;;;;;6.05;3.58;;;;;;;23.78;69.41;96650.88;5041089;28;20202;-79
2022/07/10 09:21:43;;;;;;;3.55;3.25;;;;;;;23.93;68.59;96656.06;5062011;28;20203;-79
2022/07/10 09:24:11;;;;;;;4.35;3.53;;;;;;;24.16;69.15;96651.44;5031215;28;20224;-79
2022/07/10 09:26:40;;;;;;;3.28;3.08;;;;;;;24.13;67.39;96655.66;5036306;28;20238;-79
2022/07/10 09:29:09;;;;;;;3.50;3.17;;;;;;;24.22;66.30;96660.47;5034017;28;20272;-79
2022/07/10 09:31:50;;;;;;;5.15;3.30;;;;;;;24.39;65.56;96655.91;5036925;28;20203;-79
2022/07/10 09:34:17;;;;;;;4.22;2.85;;;;;;;24.65;65.13;96656.13;5043468;28;20203;-79
2022/07/10 09:36:44;;;;;;;2.75;2.53;;;;;;;24.66;65.14;96649.50;5038487;28;20198;-79
2022/07/10 09:39:11;;;;;;;3.15;2.85;;;;;;;24.80;64.50;96652.19;5037591;28;20214;-79
2022/07/10 09:41:39;;;;;;;4.55;2.78;;;;;;;24.84;63.03;96653.16;5034993;28;20214;-79
2022/07/10 09:44:09;;;;;;;3.17;2.88;;;;;;;24.73;63.85;96654.56;5060205;28;20218;-79
2022/07/10 09:46:38;;;;;;;3.70;3.22;;;;;;;24.82;64.35;96648.00;5040908;28;20205;-80
2022/07/10 09:49:10;;;;;;;3.92;3.03;;;;;;;24.92;63.16;96651.66;5050379;28;20199;-79
2022/07/10 09:51:39;;;;;;;4.55;3.00;;;;;;;24.87;60.65;96645.09;5036373;28;20214;-79
2022/07/10 09:54:08;;;;;;;4.65;3.10;;;;;;;24.69;62.32;96646.09;5039985;28;20202;-80
2022/07/10 09:56:42;;;;;;;4.47;3.05;;;;;;;24.60;63.04;96645.19;5044851;28;20245;-79
2022/07/10 09:59:12;;;;;;;5.32;3.20;;;;;;;24.47;63.40;96655.19;5036606;28;20206;-79
2022/07/10 10:01:45;;;;;;;4.60;3.15;;;;;;;24.37;63.73;96643.53;5046762;28;20237;-79
2022/07/10 10:04:13;;;;;;;3.80;2.92;;;;;;;24.58;64.08;96650.25;5038959;28;20261;-80
2022/07/10 10:06:41;;;;;;;3.42;3.13;;;;;;;24.59;64.20;96639.97;5033247;28;20210;-79
2022/07/10 10:09:13;;;;;;;3.70;2.90;;;;;;;24.78;63.66;96641.44;5071394;28;20211;-79
2022/07/10 10:11:45;;;;;;;4.07;2.75;;;;;;;24.67;62.24;96642.81;5037926;28;20215;-79
2022/07/10 10:14:16;;;;;;;3.28;2.97;;;;;;;24.67;62.60;96639.25;5047457;28;20211;-78
2022/07/10 10:16:46;;;;;;;3.95;2.95;;;;;;;24.59;63.38;96642.75;5046365;28;20293;-79
2022/07/10 10:22:02;;;;;;;3.72;3.20;;;;;;;24.66;63.72;96629.34;5039615;28;20211;-79
2022/07/10 10:24:33;;;;;;;4.55;3.45;;;;;;;24.59;64.79;96632.53;5039593;28;20210;-79
2022/07/10 10:27:00;;;;;;;3.90;3.20;;;;;;;24.40;65.47;96632.72;5036649;28;20241;-78
2022/07/10 10:29:30;;;;;;;4.45;3.10;;;;;;;24.18;66.76;96620.78;5079451;28;20203;-78
2022/07/10 10:31:58;;;;;;;3.70;3.38;;;;;;;24.26;68.13;96622.81;5031498;28;20194;-78
2022/07/10 10:34:42;;;;;;;5.22;3.20;;;;;;;24.31;67.45;96631.81;5045739;28;20211;-78
2022/07/10 10:37:35;;;;;;;7.10;3.55;;;;;;;24.10;68.87;96625.91;5042283;28;20198;-78
2022/07/10 10:40:05;;;;;;;3.45;3.15;;;;;;;24.05;67.39;96617.75;5043062;28;20273;-77
2022/07/10 10:42:41;;;;;;;4.78;3.28;;;;;;;23.99;66.46;96630.00;5034959;28;20314;-78
2022/07/10 10:45:41;;;;;;;3.83;3.10;;;;;;;23.98;67.88;96611.03;5037314;28;20225;-77
2022/07/10 10:48:09;;;;;;;3.17;2.88;;;;;;;24.07;67.37;96615.47;4983026;28;20266;-78
2022/07/10 10:50:42;;;;;;;3.08;2.88;;;;;;;24.48;68.33;96617.34;5027304;28;20265;-77
2022/07/10 10:53:17;;;;;;;4.63;3.08;;;;;;;24.64;65.75;96615.03;5031683;28;20207;-78
2022/07/10 10:56:31;;;;;;;4.22;2.95;;;;;;;24.91;64.88;96611.31;5069929;28;20222;-78
2022/07/10 10:58:58;;;;;;;4.80;3.40;;;;;;;25.20;62.98;96620.78;5046222;28;20297;-79
2022/07/10 11:01:32;;;;;;;5.38;3.40;;;;;;;24.84;62.09;96612.56;5036332;28;20237;-78
2022/07/10 11:04:15;;;;;;;3.13;2.70;;;;;;;24.57;63.80;96609.94;5035650;28;20218;-78
2022/07/10 11:06:44;;;;;;;4.38;3.17;;;;;;;24.26;65.67;96604.31;5044224;28;20265;-78
2022/07/10 11:09:24;;;;;;;4.05;3.00;;;;;;;24.41;65.05;96611.44;5037337;28;20214;-78
2022/07/10 11:12:05;;;;;;;3.78;3.17;;;;;;;24.84;64.30;96622.78;5044915;28;20245;-78
2022/07/10 11:14:36;;;;;;;4.28;3.13;;;;;;;24.84;62.83;96614.50;5071931;28;20227;-78
2022/07/10 11:17:06;;;;;;;5.75;3.13;;;;;;;24.93;63.60;96600.78;5041010;28;20209;-78
2022/07/10 11:19:34;;;;;;;4.97;2.80;;;;;;;25.15;62.54;96601.56;5068733;28;20211;-78
2022/07/10 11:22:20;;;;;;;6.03;3.35;;;;;;;25.27;62.36;96598.19;5049287;28;20237;-78
2022/07/10 11:24:56;;;;;;;2.97;2.70;;;;;;;25.33;60.47;96599.72;5074482;28;20205;-77
2022/07/10 11:27:53;;;;;;;2.80;2.55;;;;;;;25.52;61.20;96605.78;5033423;28;20234;-78
2022/07/10 11:30:22;;;;;;;3.10;2.80;;;;;;;25.52;60.79;96603.00;5040926;28;20271;-78
2022/07/10 11:32:51;;;;;;;3.30;2.85;;;;;;;25.35;59.35;96588.34;5041264;28;20218;-78
2022/07/10 11:35:19;;;;;;;3.17;2.72;;;;;;;25.43;59.61;96591.13;5042138;28;20275;-78
2022/07/10 11:37:51;;;;;;;3.53;2.80;;;;;;;25.53;60.38;96593.59;5039956;28;20205;-79
2022/07/10 11:40:20;;;;;;;4.10;3.10;;;;;;;25.49;59.54;96587.09;5073936;28;20241;-78
2022/07/10 11:42:51;;;;;;;3.30;3.00;;;;;;;25.38;60.43;96580.19;5039899;28;20296;-78
2022/07/10 11:45:30;;;;;;;5.18;2.90;;;;;;;25.49;60.81;96578.78;5037857;28;20230;-78
2022/07/10 11:47:58;;;;;;;5.07;2.85;;;;;;;25.91;62.20;96582.03;5046566;28;20210;-78
2022/07/10 11:50:27;;;;;;;3.22;3.00;;;;;;;25.80;58.63;96575.97;5032296;28;20206;-78
2022/07/10 11:52:55;;;;;;;3.78;3.10;;;;;;;25.91;59.34;96584.78;5031497;28;20207;-79